Time;durP1;ratioP1;P1;durP2;ratioP2;P2;SDS_P1;SDS_P2;PMS_P1;PMS_P2;Temp;Humidity;BMP_temperature;BMP_pressure;BME280_temperature;BME280_humidity;BME280_pressure;Samples;Min_cycle;Max_cycle;Signal;HPM_P1;HPM_P2
2023/09/16 00:02:06;;;;;;;9.65;6.63;;;;;;;17.84;63.46;99842.81;5033194;28;20304;-49
2023/09/16 00:04:33;;;;;;;15.57;5.30;;;;;;;17.81;62.96;99848.16;5026263;28;20724;-47
2023/09/16 00:06:59;;;;;;;10.15;6.25;;;;;;;17.76;62.94;99850.09;5037430;28;20048;-50
2023/09/16 00:09:26;;;;;;;10.75;7.15;;;;;;;17.73;63.48;99840.56;5033041;28;20041;-47
2023/09/16 00:11:53;;;;;;;7.50;5.18;;;;;;;17.70;63.23;99838.09;5030788;28;20590;-52
2023/09/16 00:14:21;;;;;;;9.30;7.13;;;;;;;17.66;63.68;99850.41;5029875;28;20056;-44
2023/09/16 00:16:49;;;;;;;12.48;7.18;;;;;;;17.64;63.81;99849.63;5029308;28;20045;-46
2023/09/16 00:19:16;;;;;;;8.73;6.35;;;;;;;17.60;63.39;99840.19;5025689;28;20049;-48
2023/09/16 00:21:45;;;;;;;8.50;6.15;;;;;;;17.58;62.85;99841.97;5027354;28;20052;-52
2023/09/16 00:24:12;;;;;;;11.55;8.07;;;;;;;17.55;63.83;99842.09;5026016;28;20045;-50
2023/09/16 00:26:39;;;;;;;11.07;6.65;;;;;;;17.50;63.20;99841.41;5029792;28;20049;-50
2023/09/16 00:29:06;;;;;;;9.45;6.40;;;;;;;17.46;63.59;99844.13;5034455;28;20087;-50
2023/09/16 00:31:33;;;;;;;9.93;4.90;;;;;;;17.42;64.07;99847.75;5028216;28;20454;-47
2023/09/16 00:34:00;;;;;;;9.75;6.68;;;;;;;17.38;63.75;99851.38;5031091;28;20057;-49
2023/09/16 00:36:28;;;;;;;8.15;6.40;;;;;;;17.34;64.01;99848.03;5034582;28;20044;-49
2023/09/16 00:38:55;;;;;;;11.77;6.43;;;;;;;17.32;63.46;99851.59;5023028;28;20056;-50
2023/09/16 00:41:22;;;;;;;10.00;6.38;;;;;;;17.29;63.69;99851.72;5032817;28;20048;-49
2023/09/16 00:43:49;;;;;;;9.90;7.22;;;;;;;17.25;64.28;99850.13;5027971;28;20049;-46
2023/09/16 00:46:16;;;;;;;11.07;6.63;;;;;;;17.20;64.44;99853.72;5026087;28;20059;-47
2023/09/16 00:48:45;;;;;;;9.23;4.60;;;;;;;17.17;63.57;99861.69;5030817;28;20426;-49
2023/09/16 00:51:14;;;;;;;9.70;5.88;;;;;;;17.13;63.82;99847.00;5031288;28;20061;-47
2023/09/16 00:53:42;;;;;;;17.40;7.68;;;;;;;17.12;64.67;99850.50;5035487;28;20045;-46
2023/09/16 00:56:09;;;;;;;10.38;6.25;;;;;;;17.07;64.26;99852.44;5035406;28;20124;-49
2023/09/16 00:58:36;;;;;;;13.98;6.85;;;;;;;17.05;64.40;99841.09;5034006;28;20428;-49
2023/09/16 01:01:03;;;;;;;10.20;6.88;;;;;;;17.01;64.57;99848.22;5036892;28;20060;-48
2023/09/16 01:03:35;;;;;;;12.10;7.43;;;;;;;16.98;64.72;99847.47;5025985;28;20481;-49
2023/09/16 01:06:04;;;;;;;12.90;7.30;;;;;;;16.93;64.17;99843.22;5033399;28;20049;-46
2023/09/16 01:08:34;;;;;;;8.75;5.85;;;;;;;16.91;64.73;99858.13;5028363;28;20123;-48
2023/09/16 01:11:04;;;;;;;10.18;6.70;;;;;;;16.87;64.40;99855.66;5022263;28;20049;-50
2023/09/16 01:13:33;;;;;;;7.53;4.68;;;;;;;16.84;65.17;99851.38;5030628;28;20484;-48
2023/09/16 01:16:20;;;;;;;8.98;6.45;;;;;;;16.74;64.53;99855.19;5028194;28;20042;-52
2023/09/16 01:18:51;;;;;;;10.45;6.38;;;;;;;16.76;64.50;99842.91;5022135;28;20135;-53
2023/09/16 01:21:22;;;;;;;9.23;6.75;;;;;;;16.74;65.01;99849.94;5031874;28;20060;-47
2023/09/16 01:23:49;;;;;;;13.02;7.95;;;;;;;16.71;65.32;99850.91;5027204;28;20053;-47
2023/09/16 01:26:16;;;;;;;11.18;8.63;;;;;;;16.67;65.18;99854.53;5025115;28;20045;-46
2023/09/16 01:28:43;;;;;;;9.57;6.95;;;;;;;16.64;65.20;99850.25;5025461;28;20068;-53
2023/09/16 01:31:10;;;;;;;14.55;6.88;;;;;;;16.62;65.64;99859.03;5028630;28;20561;-48
2023/09/16 01:33:48;;;;;;;12.02;7.45;;;;;;;16.55;65.43;99850.53;5031399;28;20102;-45
2023/09/16 01:36:19;;;;;;;11.32;7.50;;;;;;;16.53;65.75;99850.59;5019733;28;20192;-54
2023/09/16 01:38:51;;;;;;;10.95;7.07;;;;;;;16.51;65.61;99841.94;5030218;28;20456;-53
2023/09/16 01:41:19;;;;;;;14.93;7.55;;;;;;;16.48;65.23;99833.34;5030185;28;20076;-49
2023/09/16 01:43:46;;;;;;;11.48;7.65;;;;;;;16.45;65.45;99840.34;5028926;28;20050;-52
2023/09/16 01:46:13;;;;;;;10.80;7.18;;;;;;;16.42;65.22;99843.06;5024767;28;20056;-48
2023/09/16 01:48:40;;;;;;;12.13;9.43;;;;;;;16.41;66.01;99840.47;5023938;28;20050;-47
2023/09/16 01:51:17;;;;;;;11.55;5.78;;;;;;;16.36;66.08;99843.25;5027478;28;20454;-49
2023/09/16 01:53:44;;;;;;;10.07;7.35;;;;;;;16.33;66.28;99845.97;5022414;28;20068;-48
2023/09/16 01:56:11;;;;;;;8.40;7.05;;;;;;;16.29;65.77;99845.22;5022268;28;20054;-52
2023/09/16 01:58:37;;;;;;;11.40;7.63;;;;;;;16.27;65.50;99853.97;5026267;28;20045;-47
2023/09/16 02:01:08;;;;;;;11.18;8.30;;;;;;;16.25;66.27;99853.19;5024533;28;20514;-47
2023/09/16 02:03:35;;;;;;;11.43;7.65;;;;;;;16.19;65.56;99852.44;5024959;28;20061;-43
2023/09/16 02:06:01;;;;;;;13.55;7.78;;;;;;;16.17;65.83;99856.88;5027048;28;20076;-47
2023/09/16 02:08:28;;;;;;;13.35;7.53;;;;;;;16.16;66.48;99854.28;5024557;28;20730;-47
2023/09/16 02:10:55;;;;;;;9.73;7.05;;;;;;;16.12;66.16;99853.53;5024574;28;20509;-51
2023/09/16 02:13:22;;;;;;;9.48;6.95;;;;;;;16.11;66.26;99859.66;5021923;28;20160;-53
2023/09/16 02:15:48;;;;;;;15.68;7.80;;;;;;;16.08;65.88;99861.50;5022938;28;20045;-49
2023/09/16 02:18:15;;;;;;;11.27;8.35;;;;;;;16.05;66.30;99857.22;5025503;28;20041;-48
2023/09/16 02:20:43;;;;;;;11.43;7.30;;;;;;;16.03;66.18;99866.84;5029328;28;20053;-49
2023/09/16 02:23:10;;;;;;;11.88;5.97;;;;;;;15.99;65.81;99865.22;5022471;28;20450;-53
2023/09/16 02:25:37;;;;;;;10.70;7.25;;;;;;;15.97;66.30;99867.03;5024702;28;20041;-45
2023/09/16 02:28:04;;;;;;;13.75;7.60;;;;;;;15.91;65.72;99860.19;5023436;28;20069;-47
2023/09/16 02:30:31;;;;;;;13.23;8.38;;;;;;;15.88;66.36;99861.13;5024105;28;20050;-48
2023/09/16 02:32:57;;;;;;;14.88;7.55;;;;;;;15.84;66.23;99861.25;5024454;28;20069;-54
2023/09/16 02:35:24;;;;;;;10.85;8.00;;;;;;;15.82;66.18;99866.53;5025894;28;20084;-50
2023/09/16 02:37:50;;;;;;;14.30;8.35;;;;;;;15.80;66.85;99863.09;5029626;28;20152;-50
2023/09/16 02:40:17;;;;;;;17.00;9.00;;;;;;;15.78;66.70;99865.75;5027814;28;20061;-50
2023/09/16 02:42:44;;;;;;;16.58;8.95;;;;;;;15.77;66.60;99864.03;5026817;28;20053;-50
2023/09/16 02:45:11;;;;;;;12.27;7.70;;;;;;;15.76;66.55;99862.31;5025872;28;20049;-49
2023/09/16 02:47:38;;;;;;;17.90;9.05;;;;;;;15.72;66.49;99860.69;5019313;28;20562;-48
2023/09/16 02:50:05;;;;;;;12.57;8.50;;;;;;;15.71;66.66;99865.97;5019138;28;20767;-45
2023/09/16 02:52:32;;;;;;;17.52;9.23;;;;;;;15.68;66.17;99865.13;5018470;28;20059;-45
2023/09/16 02:54:59;;;;;;;12.10;8.13;;;;;;;15.67;66.87;99873.88;5026828;28;20144;-50
2023/09/16 02:57:25;;;;;;;11.57;8.35;;;;;;;15.66;66.46;99881.75;5026706;28;20689;-49
2023/09/16 02:59:52;;;;;;;16.55;9.10;;;;;;;15.64;67.15;99878.34;5021478;28;20038;-49
2023/09/16 03:02:19;;;;;;;13.15;9.68;;;;;;;15.60;67.17;99877.53;5024909;28;20122;-53
2023/09/16 03:04:46;;;;;;;14.73;9.50;;;;;;;15.59;66.96;99881.06;5029151;28;20128;-48
2023/09/16 03:07:13;;;;;;;13.65;9.75;;;;;;;15.59;67.17;99883.66;5025903;28;20045;-48
2023/09/16 03:09:39;;;;;;;13.68;8.93;;;;;;;15.58;67.05;99884.56;5029845;28;20430;-49
2023/09/16 03:12:06;;;;;;;16.50;9.00;;;;;;;15.55;66.64;99888.13;5026584;28;20149;-50
2023/09/16 03:14:33;;;;;;;15.18;9.55;;;;;;;15.53;66.79;99891.66;5030788;28;20141;-45
2023/09/16 03:16:59;;;;;;;14.30;9.13;;;;;;;15.52;67.01;99889.94;5023643;28;20065;-51
2023/09/16 03:19:28;;;;;;;16.58;9.95;;;;;;;15.51;67.29;99889.06;5026046;28;20136;-48
2023/09/16 03:21:56;;;;;;;14.65;10.02;;;;;;;15.50;66.92;99891.75;5018963;28;20095;-46
2023/09/16 03:24:22;;;;;;;17.50;10.10;;;;;;;15.49;67.13;99884.78;5018397;28;20077;-48
2023/09/16 03:26:49;;;;;;;17.02;10.48;;;;;;;15.50;67.11;99886.53;5029285;28;20055;-46
2023/09/16 03:29:17;;;;;;;15.77;10.18;;;;;;;15.47;67.73;99887.44;5032178;28;20103;-49
2023/09/16 03:31:44;;;;;;;17.15;10.25;;;;;;;15.47;66.99;99886.59;5023325;28;20045;-45
2023/09/16 03:34:11;;;;;;;17.63;11.10;;;;;;;15.46;67.21;99892.69;5025803;28;20042;-49
2023/09/16 03:36:38;;;;;;;15.88;9.45;;;;;;;15.44;67.48;99882.31;5024506;28;20708;-47
2023/09/16 03:39:05;;;;;;;14.32;9.52;;;;;;;15.42;67.24;99889.31;5024206;28;20056;-47
2023/09/16 03:41:31;;;;;;;16.60;9.85;;;;;;;15.42;67.37;99879.75;5025217;28;20069;-47
2023/09/16 03:43:58;;;;;;;16.38;9.02;;;;;;;15.40;67.47;99884.13;5024586;28;20454;-52
2023/09/16 03:46:25;;;;;;;19.92;11.40;;;;;;;15.40;67.85;99876.31;5019314;28;20398;-44
2023/09/16 03:48:51;;;;;;;18.40;11.38;;;;;;;15.39;67.63;99890.25;5030355;28;20084;-46
2023/09/16 03:51:19;;;;;;;18.48;10.45;;;;;;;15.36;68.24;99879.88;5017178;28;20049;-45
2023/09/16 03:53:45;;;;;;;19.23;10.93;;;;;;;15.36;68.14;99889.47;5027747;28;20056;-52
2023/09/16 03:56:12;;;;;;;19.55;10.52;;;;;;;15.35;67.99;99891.22;5024357;28;20053;-48
2023/09/16 03:58:39;;;;;;;18.20;9.95;;;;;;;15.32;67.93;99886.09;5025049;28;20049;-52
2023/09/16 04:01:05;;;;;;;16.25;10.35;;;;;;;15.31;67.91;99891.34;5025057;28;20079;-48
2023/09/16 04:03:33;;;;;;;18.45;10.65;;;;;;;15.29;67.87;99883.53;5034795;28;20133;-52
2023/09/16 04:06:03;;;;;;;20.35;10.57;;;;;;;15.27;67.92;99880.13;5029809;28;20822;-45
2023/09/16 04:08:30;;;;;;;20.20;11.63;;;;;;;15.26;68.15;99878.41;5030166;28;20096;-49
2023/09/16 04:11:07;;;;;;;19.80;11.40;;;;;;;15.24;67.92;99881.06;5026775;28;20057;-50
2023/09/16 04:13:35;;;;;;;21.52;11.48;;;;;;;15.21;68.38;99885.50;5052407;28;20050;-45
2023/09/16 04:16:02;;;;;;;17.00;10.30;;;;;;;15.18;68.49;99883.81;5021278;28;20120;-49
2023/09/16 04:18:29;;;;;;;17.75;11.10;;;;;;;15.13;68.37;99889.16;5024115;28;20100;-46
2023/09/16 04:20:56;;;;;;;19.73;11.43;;;;;;;15.12;68.06;99891.78;5030624;28;20077;-45
2023/09/16 04:23:23;;;;;;;21.85;11.30;;;;;;;15.09;68.09;99892.72;5033689;28;20114;-47
2023/09/16 04:25:56;;;;;;;21.88;12.23;;;;;;;15.05;68.65;99888.47;5021746;28;20403;-46
2023/09/16 04:28:24;;;;;;;19.08;11.30;;;;;;;15.04;68.72;99884.16;5023668;28;20379;-50
2023/09/16 04:30:51;;;;;;;20.38;10.82;;;;;;;15.02;68.20;99880.72;5022319;28;20045;-49
2023/09/16 04:33:19;;;;;;;18.58;11.43;;;;;;;15.01;68.90;99884.22;5028744;28;20045;-50
2023/09/16 04:35:48;;;;;;;21.42;11.65;;;;;;;14.99;68.89;99878.19;5027680;28;20049;-46
2023/09/16 04:38:15;;;;;;;19.95;11.02;;;;;;;14.97;69.23;99877.38;5022196;28;20049;-49
2023/09/16 04:40:43;;;;;;;17.15;11.43;;;;;;;14.94;69.04;99877.44;5020085;28;20499;-53
2023/09/16 04:43:13;;;;;;;18.95;11.95;;;;;;;14.92;68.48;99868.81;5020908;28;20072;-53
2023/09/16 04:45:44;;;;;;;17.98;10.27;;;;;;;14.89;68.34;99869.72;5019706;28;20722;-50
2023/09/16 04:48:13;;;;;;;20.65;11.48;;;;;;;14.86;69.59;99870.66;5021702;28;20096;-49
2023/09/16 04:50:42;;;;;;;16.90;10.98;;;;;;;14.84;68.94;99866.38;5019156;28;20128;-51
2023/09/16 04:53:10;;;;;;;21.25;10.50;;;;;;;14.80;68.87;99870.81;5027979;28;20049;-49
2023/09/16 04:55:37;;;;;;;15.63;10.82;;;;;;;14.78;68.70;99869.97;5033151;28;20045;-48
2023/09/16 04:58:04;;;;;;;16.17;10.90;;;;;;;14.75;69.10;99877.81;5038341;28;20041;-50
2023/09/16 05:00:33;;;;;;;20.90;10.85;;;;;;;14.72;68.54;99883.09;5030051;28;20128;-46
2023/09/16 05:03:00;;;;;;;15.40;10.13;;;;;;;14.69;69.12;99880.59;5031676;28;20055;-51
2023/09/16 05:05:27;;;;;;;18.17;10.60;;;;;;;14.66;69.11;99886.75;5036786;28;20091;-52
2023/09/16 05:07:54;;;;;;;19.85;11.75;;;;;;;14.64;68.54;99881.56;5025259;28;20045;-48
2023/09/16 05:10:20;;;;;;;19.33;11.63;;;;;;;14.62;68.79;99885.06;5028900;28;20525;-52
2023/09/16 05:12:47;;;;;;;23.38;12.45;;;;;;;14.60;69.25;99879.91;5031063;28;20128;-47
2023/09/16 05:15:14;;;;;;;22.98;12.55;;;;;;;14.59;69.72;99883.38;5030124;28;20064;-51
2023/09/16 05:17:41;;;;;;;23.25;14.10;;;;;;;14.60;69.44;99894.69;5026974;28;20052;-52
2023/09/16 05:20:08;;;;;;;22.98;13.63;;;;;;;14.60;69.70;99884.25;5019542;28;20751;-51
2023/09/16 05:22:35;;;;;;;21.67;12.90;;;;;;;14.58;69.68;99892.09;5026709;28;20407;-51
2023/09/16 05:25:05;;;;;;;21.38;11.52;;;;;;;14.58;69.69;99889.50;5027239;28;21464;-51
2023/09/16 05:27:32;;;;;;;24.50;13.93;;;;;;;14.57;69.57;99902.56;5026030;28;20049;-44
2023/09/16 05:30:01;;;;;;;20.17;11.68;;;;;;;14.53;70.08;99905.22;5029258;28;20107;-51
2023/09/16 05:32:29;;;;;;;22.15;12.48;;;;;;;14.53;69.85;99920.03;5017634;28;20053;-49
2023/09/16 05:34:57;;;;;;;21.92;12.52;;;;;;;14.53;69.27;99922.63;5017148;28;20045;-46
2023/09/16 05:37:24;;;;;;;22.05;12.70;;;;;;;14.52;69.75;99924.38;5021348;28;20037;-47
2023/09/16 05:39:51;;;;;;;26.60;13.25;;;;;;;14.51;69.49;99924.41;5010660;28;20053;-47
2023/09/16 05:42:17;;;;;;;23.00;12.55;;;;;;;14.51;69.63;99921.78;5020082;28;20057;-49
2023/09/16 05:44:44;;;;;;;25.33;13.50;;;;;;;14.50;69.80;99927.91;5011714;28;20050;-50
2023/09/16 05:47:11;;;;;;;20.40;12.00;;;;;;;14.49;70.26;99928.81;5016304;28;20057;-47
2023/09/16 05:49:38;;;;;;;17.83;11.23;;;;;;;14.48;69.57;99932.28;5018659;28;20095;-51
2023/09/16 05:52:05;;;;;;;20.70;11.52;;;;;;;14.48;69.81;99934.88;5026682;28;20045;-50
2023/09/16 05:54:31;;;;;;;18.60;9.27;;;;;;;14.47;69.49;99930.56;5025506;28;21255;-53
2023/09/16 05:56:58;;;;;;;21.15;12.40;;;;;;;14.46;69.48;99939.28;5018048;28;20052;-47
2023/09/16 05:59:25;;;;;;;20.65;12.05;;;;;;;14.46;69.83;99934.06;5017124;28;20046;-47
2023/09/16 06:01:51;;;;;;;22.77;12.07;;;;;;;14.46;69.74;99934.06;5046553;28;20140;-49
2023/09/16 06:04:18;;;;;;;27.92;12.98;;;;;;;14.48;69.82;99945.31;5015029;28;20041;-51
2023/09/16 06:06:49;;;;;;;20.17;12.40;;;;;;;14.48;69.68;99938.34;5045491;28;20060;-48
2023/09/16 06:09:16;;;;;;;21.58;12.98;;;;;;;14.48;69.58;99947.91;5019844;28;20056;-48
2023/09/16 06:11:42;;;;;;;26.63;13.65;;;;;;;14.51;69.77;99947.84;5022648;28;20132;-51
2023/09/16 06:14:09;;;;;;;28.25;14.15;;;;;;;14.52;69.68;99950.44;5022158;28;20049;-51
2023/09/16 06:16:36;;;;;;;24.70;14.48;;;;;;;14.55;69.67;99954.72;5020649;28;20052;-47
2023/09/16 06:19:03;;;;;;;24.08;13.55;;;;;;;14.57;69.86;99947.72;5023857;28;20053;-47
2023/09/16 06:21:30;;;;;;;27.10;12.63;;;;;;;14.59;69.94;99951.16;5019884;28;20430;-50
2023/09/16 06:23:57;;;;;;;30.48;13.13;;;;;;;14.62;70.13;99966.72;5019985;28;20060;-50
2023/09/16 06:26:24;;;;;;;23.20;13.57;;;;;;;14.66;69.75;99962.31;5013552;28;20045;-43
2023/09/16 06:28:51;;;;;;;21.92;13.43;;;;;;;14.68;69.87;99959.66;5020441;28;20044;-45
2023/09/16 06:31:18;;;;;;;28.65;13.32;;;;;;;14.71;70.21;99964.81;5020988;28;20267;-46
2023/09/16 06:33:45;;;;;;;27.33;14.05;;;;;;;14.75;69.94;99967.34;5020775;28;20046;-53
2023/09/16 06:36:12;;;;;;;23.40;12.52;;;;;;;14.78;70.02;99966.44;5021005;28;20211;-49
2023/09/16 06:38:39;;;;;;;21.30;13.23;;;;;;;14.81;69.74;99974.19;5022060;28;20045;-48
2023/09/16 06:41:06;;;;;;;21.95;12.18;;;;;;;14.83;69.90;99975.00;5019186;28;20049;-50
2023/09/16 06:43:33;;;;;;;19.00;10.68;;;;;;;14.86;69.85;99980.16;5021883;28;20461;-49
2023/09/16 06:45:59;;;;;;;25.83;13.02;;;;;;;14.90;69.75;99987.03;5020215;28;20045;-51
2023/09/16 06:48:26;;;;;;;22.15;14.23;;;;;;;14.95;69.94;99983.44;5020739;28;20050;-48
2023/09/16 06:50:53;;;;;;;23.27;14.00;;;;;;;15.00;69.91;99986.84;5019488;28;20414;-47
2023/09/16 06:53:19;;;;;;;30.00;14.40;;;;;;;15.04;69.71;99989.31;5027846;28;20049;-48
2023/09/16 06:55:47;;;;;;;25.17;13.68;;;;;;;15.12;69.95;99988.31;5024832;28;20049;-51
2023/09/16 06:58:14;;;;;;;31.65;16.00;;;;;;;15.21;70.13;99989.84;5028898;28;20042;-48
2023/09/16 07:00:41;;;;;;;27.08;14.68;;;;;;;15.29;70.73;99999.22;5024215;28;20046;-53
2023/09/16 07:03:08;;;;;;;31.83;16.00;;;;;;;15.37;70.41;100000.78;5025898;28;20091;-46
2023/09/16 07:05:35;;;;;;;33.97;15.80;;;;;;;15.42;70.32;99999.78;5024534;28;20834;-44
2023/09/16 07:08:01;;;;;;;32.75;16.65;;;;;;;15.46;70.03;100011.00;5023982;28;20046;-49
2023/09/16 07:10:28;;;;;;;28.50;16.00;;;;;;;15.48;70.59;100008.38;5024038;28;20058;-51
2023/09/16 07:12:55;;;;;;;29.35;16.50;;;;;;;15.50;70.50;100015.25;5024385;28;20053;-50
2023/09/16 07:15:23;;;;;;;25.58;13.80;;;;;;;15.52;70.70;100015.22;5024795;28;20041;-51
2023/09/16 07:17:49;;;;;;;25.98;14.32;;;;;;;15.56;71.17;100022.09;5020031;28;20127;-49
2023/09/16 07:20:16;;;;;;;26.75;15.75;;;;;;;15.61;70.98;100017.63;5022829;28;20053;-48
2023/09/16 07:22:43;;;;;;;24.83;14.52;;;;;;;15.70;70.50;100031.34;5021516;28;20069;-51
2023/09/16 07:25:10;;;;;;;24.40;13.63;;;;;;;15.82;71.09;100028.44;5020183;28;20053;-49
2023/09/16 07:27:36;;;;;;;22.55;13.82;;;;;;;16.01;70.70;100028.00;5023503;28;20053;-48
2023/09/16 07:30:04;;;;;;;23.95;13.98;;;;;;;16.16;70.72;100026.75;5026628;28;20053;-50
2023/09/16 07:32:31;;;;;;;21.77;12.68;;;;;;;16.21;70.37;100039.69;5024933;28;20107;-50
2023/09/16 07:34:58;;;;;;;23.13;12.75;;;;;;;16.30;71.04;100034.19;5020682;28;20744;-47
2023/09/16 07:37:24;;;;;;;21.60;12.57;;;;;;;16.30;71.04;100036.81;5014347;28;20072;-45
2023/09/16 07:39:53;;;;;;;23.65;12.98;;;;;;;16.29;70.51;100037.72;5024847;28;20616;-48
2023/09/16 07:42:20;;;;;;;23.25;12.55;;;;;;;16.28;70.97;100031.63;5022311;28;20681;-52
2023/09/16 07:44:47;;;;;;;22.02;13.98;;;;;;;16.29;70.95;100033.38;5028304;28;20053;-45
2023/09/16 07:47:13;;;;;;;25.20;14.88;;;;;;;16.33;70.62;100034.13;5024327;28;20053;-45
2023/09/16 07:49:40;;;;;;;24.50;13.15;;;;;;;16.41;70.93;100034.78;5029562;28;20490;-44
2023/09/16 07:52:07;;;;;;;25.60;13.73;;;;;;;16.49;71.14;100038.94;5021333;28;20054;-47
2023/09/16 07:54:34;;;;;;;26.63;13.48;;;;;;;16.58;70.82;100038.66;5024306;28;20045;-49
2023/09/16 07:57:01;;;;;;;26.75;13.50;;;;;;;16.69;71.32;100047.06;5020162;28;20052;-45
2023/09/16 07:59:27;;;;;;;27.55;15.48;;;;;;;16.78;70.58;100034.63;5025448;28;20567;-49
2023/09/16 08:01:54;;;;;;;27.85;14.05;;;;;;;16.87;70.88;100041.34;5024465;28;20057;-45
2023/09/16 08:04:21;;;;;;;23.15;13.45;;;;;;;16.90;70.47;100039.53;5025968;28;20042;-46
2023/09/16 08:06:49;;;;;;;23.98;13.13;;;;;;;16.92;70.03;100048.16;5023456;28;20707;-53
2023/09/16 08:09:17;;;;;;;28.33;15.45;;;;;;;16.95;70.55;100048.09;5016337;28;20062;-47
2023/09/16 08:11:44;;;;;;;25.73;15.93;;;;;;;16.99;70.44;100048.00;5023242;28;20715;-49
2023/09/16 08:14:11;;;;;;;26.20;13.65;;;;;;;17.03;71.07;100044.38;5025532;28;20132;-43
2023/09/16 08:16:38;;;;;;;27.98;14.80;;;;;;;17.06;70.36;100049.56;5018535;28;20088;-44
2023/09/16 08:19:05;;;;;;;30.77;16.17;;;;;;;17.12;71.33;100044.13;5023098;28;20714;-46
2023/09/16 08:21:34;;;;;;;27.75;14.40;;;;;;;17.20;70.61;100049.16;5026997;28;20128;-46
2023/09/16 08:24:01;;;;;;;31.02;14.65;;;;;;;17.28;70.42;100054.13;5027778;28;20084;-49
2023/09/16 08:26:28;;;;;;;30.67;16.38;;;;;;;17.35;70.76;100050.44;5020752;28;20046;-51
2023/09/16 08:28:56;;;;;;;26.48;14.90;;;;;;;17.43;70.28;100053.66;5000542;28;20042;-50
2023/09/16 08:31:22;;;;;;;28.50;14.43;;;;;;;17.50;70.49;100064.81;5022017;28;20050;-47
2023/09/16 08:33:50;;;;;;;25.95;12.88;;;;;;;17.58;70.57;100068.06;5024509;28;20582;-44
2023/09/16 08:36:17;;;;;;;27.38;13.45;;;;;;;17.64;70.08;100067.00;5017464;28;20172;-48
2023/09/16 08:38:44;;;;;;;26.58;14.15;;;;;;;17.94;69.73;100069.50;5020506;28;20064;-47
2023/09/16 08:41:27;;;;;;;26.33;15.05;;;;;;;18.67;69.62;100066.19;5028027;28;20049;-49
2023/09/16 08:43:58;;;;;;;24.67;14.80;;;;;;;19.58;68.42;100065.44;5022428;28;20045;-48
2023/09/16 08:46:28;;;;;;;21.77;12.02;;;;;;;20.42;66.38;100069.88;5022356;28;20054;-46
2023/09/16 08:48:59;;;;;;;19.20;11.45;;;;;;;21.01;64.91;100069.91;5025750;28;20100;-48
2023/09/16 08:51:29;;;;;;;21.42;12.23;;;;;;;21.55;64.34;100058.63;5021975;28;20064;-48
2023/09/16 08:53:59;;;;;;;21.40;13.07;;;;;;;21.91;62.75;100069.22;5023888;28;20053;-46
2023/09/16 08:56:28;;;;;;;21.35;12.80;;;;;;;22.07;62.09;100072.81;5026665;28;20426;-52
2023/09/16 08:58:56;;;;;;;20.45;11.95;;;;;;;22.34;61.50;100069.69;5022745;28;20045;-48
2023/09/16 09:01:23;;;;;;;19.85;11.38;;;;;;;22.59;61.07;100081.63;5016680;28;20057;-51
2023/09/16 09:03:52;;;;;;;17.65;10.00;;;;;;;22.64;60.18;100084.03;5019376;28;20710;-45
2023/09/16 09:06:21;;;;;;;17.92;12.20;;;;;;;22.60;60.21;100079.84;5023257;28;20511;-48
2023/09/16 09:09:06;;;;;;;18.63;12.27;;;;;;;23.03;60.49;100074.03;5032391;28;20060;-49
2023/09/16 09:11:33;;;;;;;21.10;12.32;;;;;;;23.45;59.15;100079.72;5025715;28;20709;-46
2023/09/16 09:14:01;;;;;;;19.67;12.05;;;;;;;23.93;58.93;100078.75;5019698;28;20515;-51
2023/09/16 09:16:29;;;;;;;39.42;13.75;;;;;;;24.58;57.90;100078.53;5022136;28;20133;-46
2023/09/16 09:18:57;;;;;;;18.45;11.52;;;;;;;24.81;56.25;100068.28;5024816;28;20053;-53
2023/09/16 09:21:25;;;;;;;18.40;11.88;;;;;;;24.76;55.81;100079.19;5026860;28;20132;-50
2023/09/16 09:23:52;;;;;;;17.80;10.57;;;;;;;24.83;54.71;100072.56;5022996;28;20045;-48
2023/09/16 09:26:18;;;;;;;17.42;11.43;;;;;;;25.08;55.01;100076.31;5021474;28;20049;-47
2023/09/16 09:28:46;;;;;;;18.70;12.48;;;;;;;25.40;54.06;100064.59;5018010;28;20048;-54
2023/09/16 09:31:14;;;;;;;18.35;11.95;;;;;;;25.46;53.63;100069.50;5018152;28;20131;-52
2023/09/16 09:33:41;;;;;;;17.13;9.70;;;;;;;25.53;53.07;100075.25;5022469;28;20434;-48
2023/09/16 09:36:11;;;;;;;20.27;12.43;;;;;;;25.52;53.12;100069.09;5030225;28;20051;-53
2023/09/16 09:38:40;;;;;;;17.25;11.68;;;;;;;25.72;53.42;100074.06;5021833;28;20487;-52
2023/09/16 09:41:07;;;;;;;18.27;11.70;;;;;;;25.98;52.26;100076.78;5023234;28;20546;-54
2023/09/16 09:43:34;;;;;;;20.05;13.25;;;;;;;25.89;51.16;100081.75;5025736;28;20694;-50
2023/09/16 09:46:02;;;;;;;20.02;12.00;;;;;;;25.55;52.02;100078.66;5013380;28;20076;-47
2023/09/16 09:48:30;;;;;;;21.48;11.70;;;;;;;25.22;51.90;100071.91;5019961;28;20069;-53
2023/09/16 09:50:58;;;;;;;21.02;12.88;;;;;;;25.20;52.82;100076.50;5029048;28;20119;-49
2023/09/16 09:53:26;;;;;;;20.67;13.55;;;;;;;25.44;53.05;100075.84;5036210;28;20147;-49
2023/09/16 09:55:53;;;;;;;18.67;12.82;;;;;;;25.92;52.76;100075.38;5019561;28;20110;-51
2023/09/16 09:58:20;;;;;;;19.58;12.75;;;;;;;26.45;51.50;100071.88;5016953;28;20046;-50
2023/09/16 10:00:48;;;;;;;20.23;12.95;;;;;;;26.84;50.71;100079.78;5011565;28;20096;-50
2023/09/16 10:03:17;;;;;;;18.63;10.00;;;;;;;27.10;50.42;100082.41;5016887;28;20191;-53
2023/09/16 10:05:44;;;;;;;21.05;14.65;;;;;;;27.46;50.07;100083.31;5023659;28;20053;-52
2023/09/16 10:08:11;;;;;;;18.98;13.88;;;;;;;27.67;49.67;100087.22;5022386;28;20045;-55
2023/09/16 10:10:39;;;;;;;22.08;14.75;;;;;;;27.56;48.24;100087.97;5020438;28;20041;-51
2023/09/16 10:13:09;;;;;;;22.08;14.13;;;;;;;27.21;48.32;100084.28;5028034;28;20441;-48
2023/09/16 10:15:37;;;;;;;25.48;15.30;;;;;;;26.81;48.66;100074.66;5019604;28;20114;-50
2023/09/16 10:18:08;;;;;;;23.55;15.55;;;;;;;26.53;49.33;100074.81;5022782;28;20100;-49
2023/09/16 10:20:38;;;;;;;21.38;14.57;;;;;;;26.59;49.67;100073.56;5028176;28;20045;-47
2023/09/16 10:23:06;;;;;;;;;;;;;;;26.69;49.59;100074.56;5022176;28;20092;-50
2023/09/16 10:25:34;;;;;;;23.05;13.93;;;;;;;26.78;49.52;100066.94;5026706;28;19973;-52
2023/09/16 10:28:07;;;;;;;31.70;15.82;;;;;;;26.90;49.53;100060.75;5025017;28;20506;-51
2023/09/16 10:30:36;;;;;;;20.42;12.15;;;;;;;27.02;49.22;100068.84;5018293;28;20458;-49
2023/09/16 10:33:04;;;;;;;22.02;14.32;;;;;;;27.12;49.11;100069.84;5024379;28;20053;-52
2023/09/16 10:35:34;;;;;;;23.85;13.55;;;;;;;27.12;48.77;100069.00;5022529;28;20065;-53
2023/09/16 10:38:02;;;;;;;;;;;;;;;27.14;48.67;100062.63;5029007;28;20049;-54
2023/09/16 10:40:30;;;;;;;21.55;13.45;;;;;;;27.15;48.75;100064.31;5025855;28;20452;-46
2023/09/16 10:42:58;;;;;;;22.08;12.95;;;;;;;27.26;48.30;100065.34;5026626;28;20068;-50
2023/09/16 10:45:26;;;;;;;21.17;13.90;;;;;;;27.24;48.35;100067.25;5025305;28;20511;-52
2023/09/16 10:47:53;;;;;;;21.48;14.40;;;;;;;27.22;48.77;100074.50;5019223;28;20782;-51
2023/09/16 10:50:24;;;;;;;20.98;13.75;;;;;;;27.22;47.78;100071.84;5024665;28;20052;-47
2023/09/16 10:52:55;;;;;;;17.25;12.43;;;;;;;27.24;48.49;100075.22;5021089;28;20052;-51
2023/09/16 10:58:06;;;;;;;15.20;9.73;;;;;;;27.46;48.31;100067.38;5059213;27;20920;-51
2023/09/16 11:00:39;;;;;;;17.38;10.20;;;;;;;27.54;48.25;100068.63;5048613;28;20045;-50
2023/09/16 11:03:13;;;;;;;13.73;9.25;;;;;;;27.57;47.34;100073.72;5045747;28;20555;-51
2023/09/16 11:05:40;;;;;;;18.00;9.50;;;;;;;27.68;47.94;100070.28;5062506;28;20041;-48
2023/09/16 11:08:09;;;;;;;16.45;9.15;;;;;;;27.69;46.65;100070.16;5047408;28;20121;-54
2023/09/16 11:10:37;;;;;;;12.38;7.47;;;;;;;27.53;46.68;100067.78;5061633;28;20157;-51
2023/09/16 11:13:04;;;;;;;13.00;7.38;;;;;;;27.37;47.00;100062.75;5061600;28;20053;-50
2023/09/16 11:15:33;;;;;;;14.20;7.63;;;;;;;27.26;46.77;100060.03;5065035;28;20052;-47
2023/09/16 11:18:02;;;;;;;10.30;6.32;;;;;;;27.22;47.76;100061.22;5067190;28;20045;-51
2023/09/16 11:20:33;;;;;;;16.25;8.40;;;;;;;27.23;47.39;100060.25;5057778;28;20044;-50
2023/09/16 11:23:03;;;;;;;15.25;8.35;;;;;;;27.23;47.56;100061.09;5071218;28;20135;-46
2023/09/16 11:25:35;;;;;;;14.38;8.23;;;;;;;27.13;46.78;100060.06;5061221;28;20080;-52